Birch River, West Virginia
Current Conditions -  °F | °C
As of 4:35 PM on Thursday 18 Dec 2014 (Local Time) from KW22 Reporting Station
Overcast Overcast  
Wind Chill: -3°   Ceiling: 1600
Heat Index: -3°   Visibility: 10mi
Dew Point: -7°   Wind: 0mph
Humidity: 74%   Direction: NA
Pressure: 30.15"   Gusts: NA
Location:  38.5°N, 80.75°W
Report Text: KW22 182135Z AUTO 00000KT 10SM OVC016 M03/M07 A3015 RMK AO2
Loading
Personal Weather Stations






























Interactive Weather Map New forecast layout! Learn more

10-Day Weather Forecast

Advertisements
Track Severe Weather on mobile